sensor_id;sensor_type;location;lat;lon;timestamp;P1;durP1;ratioP1;P2;durP2;ratioP2
20179;SDS011;10249;48.900;9.090;2023-07-22T00:01:25;8.13;;;7.87;;
20179;SDS011;10249;48.900;9.090;2023-07-22T00:03:52;7.90;;;7.70;;
20179;SDS011;10249;48.900;9.090;2023-07-22T00:06:19;7.97;;;7.77;;
20179;SDS011;10249;48.900;9.090;2023-07-22T00:08:46;8.47;;;8.17;;
20179;SDS011;10249;48.900;9.090;2023-07-22T00:11:13;8.40;;;8.10;;
20179;SDS011;10249;48.900;9.090;2023-07-22T00:13:40;8.27;;;7.97;;
20179;SDS011;10249;48.900;9.090;2023-07-22T00:16:10;7.80;;;7.60;;
20179;SDS011;10249;48.900;9.090;2023-07-22T00:18:37;7.60;;;7.40;;
20179;SDS011;10249;48.900;9.090;2023-07-22T00:21:04;7.70;;;7.50;;
20179;SDS011;10249;48.900;9.090;2023-07-22T00:23:34;7.23;;;7.03;;
20179;SDS011;10249;48.900;9.090;2023-07-22T00:26:01;7.20;;;7.00;;
20179;SDS011;10249;48.900;9.090;2023-07-22T00:28:28;7.30;;;7.10;;
20179;SDS011;10249;48.900;9.090;2023-07-22T00:30:55;7.30;;;7.10;;
20179;SDS011;10249;48.900;9.090;2023-07-22T00:33:24;7.03;;;6.83;;
20179;SDS011;10249;48.900;9.090;2023-07-22T00:35:52;7.03;;;6.83;;
20179;SDS011;10249;48.900;9.090;2023-07-22T00:38:19;7.07;;;6.87;;
20179;SDS011;10249;48.900;9.090;2023-07-22T00:40:46;7.20;;;7.00;;
20179;SDS011;10249;48.900;9.090;2023-07-22T00:43:13;6.97;;;6.77;;
20179;SDS011;10249;48.900;9.090;2023-07-22T00:45:41;7.00;;;6.80;;
20179;SDS011;10249;48.900;9.090;2023-07-22T00:48:08;6.90;;;6.70;;
20179;SDS011;10249;48.900;9.090;2023-07-22T00:50:37;6.60;;;6.40;;
20179;SDS011;10249;48.900;9.090;2023-07-22T00:53:05;6.90;;;6.70;;
20179;SDS011;10249;48.900;9.090;2023-07-22T00:55:32;6.90;;;6.70;;
20179;SDS011;10249;48.900;9.090;2023-07-22T00:58:00;6.80;;;6.60;;
20179;SDS011;10249;48.900;9.090;2023-07-22T01:00:27;7.10;;;6.90;;
20179;SDS011;10249;48.900;9.090;2023-07-22T01:02:54;7.00;;;6.80;;
20179;SDS011;10249;48.900;9.090;2023-07-22T01:05:21;7.33;;;7.13;;
20179;SDS011;10249;48.900;9.090;2023-07-22T01:07:51;6.70;;;6.50;;
20179;SDS011;10249;48.900;9.090;2023-07-22T01:10:18;6.30;;;6.10;;
20179;SDS011;10249;48.900;9.090;2023-07-22T01:12:46;6.60;;;6.40;;
20179;SDS011;10249;48.900;9.090;2023-07-22T01:15:13;6.70;;;6.50;;
20179;SDS011;10249;48.900;9.090;2023-07-22T01:17:40;6.10;;;5.90;;
20179;SDS011;10249;48.900;9.090;2023-07-22T01:20:07;6.27;;;6.07;;
20179;SDS011;10249;48.900;9.090;2023-07-22T01:22:35;5.97;;;5.77;;
20179;SDS011;10249;48.900;9.090;2023-07-22T01:25:04;5.93;;;5.73;;
20179;SDS011;10249;48.900;9.090;2023-07-22T01:27:32;5.80;;;5.60;;
20179;SDS011;10249;48.900;9.090;2023-07-22T01:29:59;5.70;;;5.50;;
20179;SDS011;10249;48.900;9.090;2023-07-22T01:32:28;5.70;;;5.50;;
20179;SDS011;10249;48.900;9.090;2023-07-22T01:34:55;5.67;;;5.47;;
20179;SDS011;10249;48.900;9.090;2023-07-22T01:37:22;5.70;;;5.50;;
20179;SDS011;10249;48.900;9.090;2023-07-22T01:39:50;5.70;;;5.50;;
20179;SDS011;10249;48.900;9.090;2023-07-22T01:42:19;5.70;;;5.50;;
20179;SDS011;10249;48.900;9.090;2023-07-22T01:44:46;5.53;;;5.33;;
20179;SDS011;10249;48.900;9.090;2023-07-22T01:47:13;5.60;;;5.40;;
20179;SDS011;10249;48.900;9.090;2023-07-22T01:49:40;5.47;;;5.27;;
20179;SDS011;10249;48.900;9.090;2023-07-22T01:52:07;5.60;;;5.40;;
20179;SDS011;10249;48.900;9.090;2023-07-22T01:54:34;5.50;;;5.30;;
20179;SDS011;10249;48.900;9.090;2023-07-22T01:57:02;5.40;;;5.20;;
20179;SDS011;10249;48.900;9.090;2023-07-22T01:59:30;5.53;;;5.33;;
20179;SDS011;10249;48.900;9.090;2023-07-22T02:01:57;5.50;;;5.30;;
20179;SDS011;10249;48.900;9.090;2023-07-22T02:04:24;5.17;;;5.07;;
20179;SDS011;10249;48.900;9.090;2023-07-22T02:06:51;5.60;;;5.40;;
20179;SDS011;10249;48.900;9.090;2023-07-22T02:09:18;5.50;;;5.30;;
20179;SDS011;10249;48.900;9.090;2023-07-22T02:11:45;5.80;;;5.60;;
20179;SDS011;10249;48.900;9.090;2023-07-22T02:14:13;5.70;;;5.50;;
20179;SDS011;10249;48.900;9.090;2023-07-22T02:16:41;5.43;;;5.23;;
20179;SDS011;10249;48.900;9.090;2023-07-22T02:19:08;5.60;;;5.40;;
20179;SDS011;10249;48.900;9.090;2023-07-22T02:21:35;5.60;;;5.40;;
20179;SDS011;10249;48.900;9.090;2023-07-22T02:24:03;5.60;;;5.40;;
20179;SDS011;10249;48.900;9.090;2023-07-22T02:26:30;5.60;;;5.40;;
20179;SDS011;10249;48.900;9.090;2023-07-22T02:28:57;5.70;;;5.50;;
20179;SDS011;10249;48.900;9.090;2023-07-22T02:31:24;5.27;;;5.13;;
20179;SDS011;10249;48.900;9.090;2023-07-22T02:33:53;5.43;;;5.23;;
20179;SDS011;10249;48.900;9.090;2023-07-22T02:36:20;5.40;;;5.20;;
20179;SDS011;10249;48.900;9.090;2023-07-22T02:38:47;5.53;;;5.33;;
20179;SDS011;10249;48.900;9.090;2023-07-22T02:41:14;5.10;;;5.00;;
20179;SDS011;10249;48.900;9.090;2023-07-22T02:43:41;5.50;;;5.30;;
20179;SDS011;10249;48.900;9.090;2023-07-22T02:46:08;5.20;;;5.10;;
20179;SDS011;10249;48.900;9.090;2023-07-22T02:48:35;5.20;;;5.10;;
20179;SDS011;10249;48.900;9.090;2023-07-22T02:51:05;5.10;;;5.00;;
20179;SDS011;10249;48.900;9.090;2023-07-22T02:53:33;5.27;;;5.10;;
20179;SDS011;10249;48.900;9.090;2023-07-22T02:56:01;5.10;;;5.00;;
20179;SDS011;10249;48.900;9.090;2023-07-22T02:58:29;4.90;;;4.80;;
20179;SDS011;10249;48.900;9.090;2023-07-22T03:00:56;5.10;;;5.00;;
20179;SDS011;10249;48.900;9.090;2023-07-22T03:03:23;5.00;;;4.90;;
20179;SDS011;10249;48.900;9.090;2023-07-22T03:05:50;4.97;;;4.87;;
20179;SDS011;10249;48.900;9.090;2023-07-22T03:08:19;4.80;;;4.70;;
20179;SDS011;10249;48.900;9.090;2023-07-22T03:10:46;5.40;;;5.20;;
20179;SDS011;10249;48.900;9.090;2023-07-22T03:13:14;4.70;;;4.60;;
20179;SDS011;10249;48.900;9.090;2023-07-22T03:15:41;5.00;;;4.90;;
20179;SDS011;10249;48.900;9.090;2023-07-22T03:18:08;4.90;;;4.80;;
20179;SDS011;10249;48.900;9.090;2023-07-22T03:20:36;4.83;;;4.73;;
20179;SDS011;10249;48.900;9.090;2023-07-22T03:23:03;4.90;;;4.80;;
20179;SDS011;10249;48.900;9.090;2023-07-22T03:25:32;5.00;;;4.90;;
20179;SDS011;10249;48.900;9.090;2023-07-22T03:27:59;4.73;;;4.63;;
20179;SDS011;10249;48.900;9.090;2023-07-22T03:30:29;4.83;;;4.73;;
20179;SDS011;10249;48.900;9.090;2023-07-22T03:32:56;5.00;;;4.90;;
20179;SDS011;10249;48.900;9.090;2023-07-22T03:35:23;4.87;;;4.77;;
20179;SDS011;10249;48.900;9.090;2023-07-22T03:37:50;4.93;;;4.83;;
20179;SDS011;10249;48.900;9.090;2023-07-22T03:40:18;4.80;;;4.70;;
20179;SDS011;10249;48.900;9.090;2023-07-22T03:42:47;5.30;;;5.10;;
20179;SDS011;10249;48.900;9.090;2023-07-22T03:45:14;4.87;;;4.77;;
20179;SDS011;10249;48.900;9.090;2023-07-22T03:47:41;4.90;;;4.80;;
20179;SDS011;10249;48.900;9.090;2023-07-22T03:50:08;5.07;;;4.97;;
20179;SDS011;10249;48.900;9.090;2023-07-22T03:52:35;5.10;;;5.00;;
20179;SDS011;10249;48.900;9.090;2023-07-22T03:55:02;5.60;;;5.40;;
20179;SDS011;10249;48.900;9.090;2023-07-22T03:57:30;5.60;;;5.40;;
20179;SDS011;10249;48.900;9.090;2023-07-22T03:59:59;5.47;;;5.27;;
20179;SDS011;10249;48.900;9.090;2023-07-22T04:02:26;5.50;;;5.30;;
20179;SDS011;10249;48.900;9.090;2023-07-22T04:04:53;5.40;;;5.20;;
20179;SDS011;10249;48.900;9.090;2023-07-22T04:07:20;5.00;;;4.90;;
20179;SDS011;10249;48.900;9.090;2023-07-22T04:09:47;5.20;;;5.10;;
20179;SDS011;10249;48.900;9.090;2023-07-22T04:12:15;5.90;;;5.70;;
20179;SDS011;10249;48.900;9.090;2023-07-22T04:14:42;5.70;;;5.50;;
20179;SDS011;10249;48.900;9.090;2023-07-22T04:17:10;5.70;;;5.50;;
20179;SDS011;10249;48.900;9.090;2023-07-22T04:19:37;5.87;;;5.67;;
20179;SDS011;10249;48.900;9.090;2023-07-22T04:22:04;5.90;;;5.70;;
20179;SDS011;10249;48.900;9.090;2023-07-22T04:24:32;6.03;;;5.83;;
20179;SDS011;10249;48.900;9.090;2023-07-22T04:27:00;6.10;;;5.90;;
20179;SDS011;10249;48.900;9.090;2023-07-22T04:29:27;6.27;;;6.07;;
20179;SDS011;10249;48.900;9.090;2023-07-22T04:31:56;6.47;;;6.27;;
20179;SDS011;10249;48.900;9.090;2023-07-22T04:34:25;6.37;;;6.17;;
20179;SDS011;10249;48.900;9.090;2023-07-22T04:36:54;6.30;;;6.10;;
20179;SDS011;10249;48.900;9.090;2023-07-22T04:39:22;6.70;;;6.50;;
20179;SDS011;10249;48.900;9.090;2023-07-22T04:41:49;6.93;;;6.73;;
20179;SDS011;10249;48.900;9.090;2023-07-22T04:44:16;6.93;;;6.73;;
20179;SDS011;10249;48.900;9.090;2023-07-22T04:46:44;6.90;;;6.70;;
20179;SDS011;10249;48.900;9.090;2023-07-22T04:49:11;7.03;;;6.83;;
20179;SDS011;10249;48.900;9.090;2023-07-22T04:51:39;7.30;;;7.10;;
20179;SDS011;10249;48.900;9.090;2023-07-22T04:54:06;7.20;;;7.00;;
20179;SDS011;10249;48.900;9.090;2023-07-22T04:56:33;7.37;;;7.17;;
20179;SDS011;10249;48.900;9.090;2023-07-22T04:59:01;7.30;;;7.10;;
20179;SDS011;10249;48.900;9.090;2023-07-22T05:01:28;7.60;;;7.40;;
20179;SDS011;10249;48.900;9.090;2023-07-22T05:03:55;7.40;;;7.20;;
20179;SDS011;10249;48.900;9.090;2023-07-22T05:06:23;7.50;;;7.30;;
20179;SDS011;10249;48.900;9.090;2023-07-22T05:08:51;7.70;;;7.50;;
20179;SDS011;10249;48.900;9.090;2023-07-22T05:11:18;7.70;;;7.50;;
20179;SDS011;10249;48.900;9.090;2023-07-22T05:13:45;7.83;;;7.63;;
20179;SDS011;10249;48.900;9.090;2023-07-22T05:16:12;7.50;;;7.30;;
20179;SDS011;10249;48.900;9.090;2023-07-22T05:18:39;7.50;;;7.30;;
20179;SDS011;10249;48.900;9.090;2023-07-22T05:21:06;7.50;;;7.30;;
20179;SDS011;10249;48.900;9.090;2023-07-22T05:23:33;7.60;;;7.40;;
20179;SDS011;10249;48.900;9.090;2023-07-22T05:26:02;7.23;;;7.03;;
20179;SDS011;10249;48.900;9.090;2023-07-22T05:28:29;7.00;;;6.80;;
20179;SDS011;10249;48.900;9.090;2023-07-22T05:30:56;7.70;;;7.50;;
20179;SDS011;10249;48.900;9.090;2023-07-22T05:33:23;7.63;;;7.43;;
20179;SDS011;10249;48.900;9.090;2023-07-22T05:35:50;7.50;;;7.30;;
20179;SDS011;10249;48.900;9.090;2023-07-22T05:38:17;7.90;;;7.70;;
20179;SDS011;10249;48.900;9.090;2023-07-22T05:40:44;7.90;;;7.70;;
20179;SDS011;10249;48.900;9.090;2023-07-22T05:43:13;8.30;;;8.00;;
20179;SDS011;10249;48.900;9.090;2023-07-22T05:45:40;8.57;;;8.27;;
20179;SDS011;10249;48.900;9.090;2023-07-22T05:48:07;8.47;;;8.17;;
20179;SDS011;10249;48.900;9.090;2023-07-22T05:50:34;9.07;;;8.77;;
20179;SDS011;10249;48.900;9.090;2023-07-22T05:53:01;9.20;;;8.90;;
20179;SDS011;10249;48.900;9.090;2023-07-22T05:55:28;9.20;;;8.90;;
20179;SDS011;10249;48.900;9.090;2023-07-22T05:57:55;9.33;;;9.03;;
20179;SDS011;10249;48.900;9.090;2023-07-22T06:00:24;9.77;;;9.47;;
20179;SDS011;10249;48.900;9.090;2023-07-22T06:02:51;10.03;;;9.73;;
20179;SDS011;10249;48.900;9.090;2023-07-22T06:05:18;10.07;;;9.77;;
20179;SDS011;10249;48.900;9.090;2023-07-22T06:07:45;10.40;;;10.00;;
20179;SDS011;10249;48.900;9.090;2023-07-22T06:10:12;10.30;;;10.00;;
20179;SDS011;10249;48.900;9.090;2023-07-22T06:12:39;9.73;;;9.43;;
20179;SDS011;10249;48.900;9.090;2023-07-22T06:15:07;10.00;;;9.70;;
20179;SDS011;10249;48.900;9.090;2023-07-22T06:17:35;10.10;;;9.80;;
20179;SDS011;10249;48.900;9.090;2023-07-22T06:20:03;10.47;;;10.07;;
20179;SDS011;10249;48.900;9.090;2023-07-22T06:22:30;10.63;;;10.23;;
20179;SDS011;10249;48.900;9.090;2023-07-22T06:24:57;11.20;;;10.80;;
20179;SDS011;10249;48.900;9.090;2023-07-22T06:27:24;11.60;;;11.20;;
20179;SDS011;10249;48.900;9.090;2023-07-22T06:29:51;11.20;;;10.80;;
20179;SDS011;10249;48.900;9.090;2023-07-22T06:32:18;11.20;;;10.80;;
20179;SDS011;10249;48.900;9.090;2023-07-22T06:34:47;11.40;;;11.00;;
20179;SDS011;10249;48.900;9.090;2023-07-22T06:37:14;11.43;;;11.03;;
20179;SDS011;10249;48.900;9.090;2023-07-22T06:39:41;11.40;;;11.00;;
20179;SDS011;10249;48.900;9.090;2023-07-22T06:42:08;11.63;;;11.23;;
20179;SDS011;10249;48.900;9.090;2023-07-22T06:44:35;11.50;;;11.10;;
20179;SDS011;10249;48.900;9.090;2023-07-22T06:47:02;11.50;;;11.10;;
20179;SDS011;10249;48.900;9.090;2023-07-22T06:49:29;11.40;;;11.00;;
20179;SDS011;10249;48.900;9.090;2023-07-22T06:51:58;11.60;;;11.20;;
20179;SDS011;10249;48.900;9.090;2023-07-22T06:54:26;11.73;;;11.33;;
20179;SDS011;10249;48.900;9.090;2023-07-22T06:56:53;12.00;;;11.60;;
20179;SDS011;10249;48.900;9.090;2023-07-22T06:59:20;11.70;;;11.30;;
20179;SDS011;10249;48.900;9.090;2023-07-22T07:01:47;12.10;;;11.70;;
20179;SDS011;10249;48.900;9.090;2023-07-22T07:04:14;12.23;;;11.80;;
20179;SDS011;10249;48.900;9.090;2023-07-22T07:06:41;12.40;;;11.90;;
20179;SDS011;10249;48.900;9.090;2023-07-22T07:09:10;12.70;;;12.20;;
20179;SDS011;10249;48.900;9.090;2023-07-22T07:11:37;12.80;;;12.30;;
20179;SDS011;10249;48.900;9.090;2023-07-22T07:14:04;12.37;;;11.87;;
20179;SDS011;10249;48.900;9.090;2023-07-22T07:16:31;12.70;;;12.20;;
20179;SDS011;10249;48.900;9.090;2023-07-22T07:18:58;12.50;;;12.00;;
20179;SDS011;10249;48.900;9.090;2023-07-22T07:21:26;12.80;;;12.30;;
20179;SDS011;10249;48.900;9.090;2023-07-22T07:23:53;12.70;;;12.20;;
20179;SDS011;10249;48.900;9.090;2023-07-22T07:26:22;13.07;;;12.57;;
20179;SDS011;10249;48.900;9.090;2023-07-22T07:28:49;13.20;;;12.70;;
20179;SDS011;10249;48.900;9.090;2023-07-22T07:31:16;13.30;;;12.80;;
20179;SDS011;10249;48.900;9.090;2023-07-22T07:33:43;13.23;;;12.73;;
20179;SDS011;10249;48.900;9.090;2023-07-22T07:36:10;13.20;;;12.70;;
20179;SDS011;10249;48.900;9.090;2023-07-22T07:38:38;12.93;;;12.43;;
20179;SDS011;10249;48.900;9.090;2023-07-22T07:41:05;13.20;;;12.70;;
20179;SDS011;10249;48.900;9.090;2023-07-22T07:43:34;13.30;;;12.80;;
20179;SDS011;10249;48.900;9.090;2023-07-22T07:46:15;13.00;;;12.50;;
20179;SDS011;10249;48.900;9.090;2023-07-22T07:48:43;12.93;;;12.43;;
20179;SDS011;10249;48.900;9.090;2023-07-22T07:51:11;13.23;;;12.73;;
20179;SDS011;10249;48.900;9.090;2023-07-22T07:53:38;13.17;;;12.67;;
20179;SDS011;10249;48.900;9.090;2023-07-22T07:56:06;13.47;;;12.97;;
20179;SDS011;10249;48.900;9.090;2023-07-22T07:58:34;13.03;;;12.53;;
20179;SDS011;10249;48.900;9.090;2023-07-22T08:01:01;13.43;;;12.93;;
20179;SDS011;10249;48.900;9.090;2023-07-22T08:03:29;13.50;;;13.00;;
20179;SDS011;10249;48.900;9.090;2023-07-22T08:05:56;13.10;;;12.60;;
20179;SDS011;10249;48.900;9.090;2023-07-22T08:08:23;13.40;;;12.90;;
20179;SDS011;10249;48.900;9.090;2023-07-22T08:10:57;13.93;;;13.33;;
20179;SDS011;10249;48.900;9.090;2023-07-22T08:13:24;13.40;;;12.90;;
20179;SDS011;10249;48.900;9.090;2023-07-22T08:15:52;13.40;;;12.90;;
20179;SDS011;10249;48.900;9.090;2023-07-22T08:18:19;13.17;;;12.67;;
20179;SDS011;10249;48.900;9.090;2023-07-22T08:20:46;13.27;;;12.77;;
20179;SDS011;10249;48.900;9.090;2023-07-22T08:23:13;14.07;;;13.47;;
20179;SDS011;10249;48.900;9.090;2023-07-22T08:25:41;13.63;;;13.03;;
20179;SDS011;10249;48.900;9.090;2023-07-22T08:28:08;13.70;;;13.10;;
20179;SDS011;10249;48.900;9.090;2023-07-22T08:30:35;14.10;;;13.50;;
20179;SDS011;10249;48.900;9.090;2023-07-22T08:33:04;13.90;;;13.30;;
20179;SDS011;10249;48.900;9.090;2023-07-22T08:35:32;14.20;;;13.60;;
20179;SDS011;10249;48.900;9.090;2023-07-22T08:38:00;13.97;;;13.37;;
20179;SDS011;10249;48.900;9.090;2023-07-22T08:40:32;13.73;;;13.13;;
20179;SDS011;10249;48.900;9.090;2023-07-22T08:42:59;14.00;;;13.40;;
20179;SDS011;10249;48.900;9.090;2023-07-22T08:45:26;13.60;;;13.00;;
20179;SDS011;10249;48.900;9.090;2023-07-22T08:47:57;13.90;;;13.30;;
20179;SDS011;10249;48.900;9.090;2023-07-22T08:50:30;13.83;;;13.23;;
20179;SDS011;10249;48.900;9.090;2023-07-22T08:52:57;13.80;;;13.20;;
20179;SDS011;10249;48.900;9.090;2023-07-22T08:55:25;13.87;;;13.27;;
20179;SDS011;10249;48.900;9.090;2023-07-22T08:57:52;14.37;;;13.77;;
20179;SDS011;10249;48.900;9.090;2023-07-22T09:00:20;14.20;;;13.60;;
20179;SDS011;10249;48.900;9.090;2023-07-22T09:02:47;14.23;;;13.63;;
20179;SDS011;10249;48.900;9.090;2023-07-22T09:05:15;14.33;;;13.73;;
20179;SDS011;10249;48.900;9.090;2023-07-22T09:07:44;14.73;;;14.03;;
20179;SDS011;10249;48.900;9.090;2023-07-22T09:10:14;14.17;;;13.57;;
20179;SDS011;10249;48.900;9.090;2023-07-22T09:12:42;14.30;;;13.70;;
20179;SDS011;10249;48.900;9.090;2023-07-22T09:15:09;14.43;;;13.83;;
20179;SDS011;10249;48.900;9.090;2023-07-22T09:17:38;14.37;;;13.77;;
20179;SDS011;10249;48.900;9.090;2023-07-22T09:20:06;14.47;;;13.87;;
20179;SDS011;10249;48.900;9.090;2023-07-22T09:22:33;14.50;;;13.90;;
20179;SDS011;10249;48.900;9.090;2023-07-22T09:25:16;14.37;;;13.77;;
20179;SDS011;10249;48.900;9.090;2023-07-22T09:27:44;14.40;;;13.80;;
20179;SDS011;10249;48.900;9.090;2023-07-22T09:30:19;14.60;;;14.00;;
20179;SDS011;10249;48.900;9.090;2023-07-22T09:32:46;14.43;;;13.83;;
20179;SDS011;10249;48.900;9.090;2023-07-22T09:35:14;14.57;;;13.97;;
20179;SDS011;10249;48.900;9.090;2023-07-22T09:37:41;14.90;;;14.20;;
20179;SDS011;10249;48.900;9.090;2023-07-22T09:42:52;14.60;;;14.00;;
20179;SDS011;10249;48.900;9.090;2023-07-22T09:45:20;14.27;;;13.67;;
20179;SDS011;10249;48.900;9.090;2023-07-22T09:47:48;14.67;;;14.07;;
20179;SDS011;10249;48.900;9.090;2023-07-22T09:50:16;15.10;;;14.40;;
20179;SDS011;10249;48.900;9.090;2023-07-22T09:52:44;14.80;;;14.20;;
20179;SDS011;10249;48.900;9.090;2023-07-22T09:55:12;15.00;;;14.30;;
20179;SDS011;10249;48.900;9.090;2023-07-22T09:57:40;15.07;;;14.40;;
20179;SDS011;10249;48.900;9.090;2023-07-22T10:00:12;15.53;;;14.83;;
20179;SDS011;10249;48.900;9.090;2023-07-22T10:02:40;14.90;;;14.23;;
20179;SDS011;10249;48.900;9.090;2023-07-22T10:05:08;15.33;;;14.63;;
20179;SDS011;10249;48.900;9.090;2023-07-22T10:07:38;15.30;;;14.60;;
20179;SDS011;10249;48.900;9.090;2023-07-22T10:10:10;15.13;;;14.43;;
20179;SDS011;10249;48.900;9.090;2023-07-22T10:12:38;15.30;;;14.60;;
20179;SDS011;10249;48.900;9.090;2023-07-22T10:15:06;15.13;;;14.43;;
20179;SDS011;10249;48.900;9.090;2023-07-22T10:17:35;15.43;;;14.73;;
20179;SDS011;10249;48.900;9.090;2023-07-22T10:20:03;15.40;;;14.70;;
20179;SDS011;10249;48.900;9.090;2023-07-22T10:22:33;16.03;;;15.23;;
20179;SDS011;10249;48.900;9.090;2023-07-22T10:25:01;15.90;;;15.20;;
20179;SDS011;10249;48.900;9.090;2023-07-22T10:27:30;15.50;;;14.80;;
20179;SDS011;10249;48.900;9.090;2023-07-22T10:29:58;15.87;;;15.17;;
20179;SDS011;10249;48.900;9.090;2023-07-22T10:32:31;15.85;;;15.15;;
20179;SDS011;10249;48.900;9.090;2023-07-22T10:34:59;15.80;;;15.10;;
20179;SDS011;10249;48.900;9.090;2023-07-22T10:37:29;15.97;;;15.27;;
20179;SDS011;10249;48.900;9.090;2023-07-22T10:39:58;15.77;;;15.07;;
20179;SDS011;10249;48.900;9.090;2023-07-22T10:42:25;15.67;;;14.97;;
20179;SDS011;10249;48.900;9.090;2023-07-22T10:44:52;15.90;;;15.20;;
20179;SDS011;10249;48.900;9.090;2023-07-22T10:47:31;15.95;;;15.25;;
20179;SDS011;10249;48.900;9.090;2023-07-22T10:50:06;15.90;;;15.20;;
20179;SDS011;10249;48.900;9.090;2023-07-22T10:52:38;15.80;;;15.10;;
20179;SDS011;10249;48.900;9.090;2023-07-22T10:55:13;15.85;;;15.15;;
20179;SDS011;10249;48.900;9.090;2023-07-22T10:57:47;15.30;;;14.60;;
20179;SDS011;10249;48.900;9.090;2023-07-22T11:00:17;15.93;;;15.23;;
20179;SDS011;10249;48.900;9.090;2023-07-22T11:02:46;15.05;;;14.35;;
20179;SDS011;10249;48.900;9.090;2023-07-22T11:05:17;15.35;;;14.65;;
20179;SDS011;10249;48.900;9.090;2023-07-22T11:07:44;16.07;;;15.37;;
20179;SDS011;10249;48.900;9.090;2023-07-22T11:10:13;15.47;;;14.77;;
20179;SDS011;10249;48.900;9.090;2023-07-22T11:12:42;15.57;;;14.87;;
20179;SDS011;10249;48.900;9.090;2023-07-22T11:15:10;15.40;;;14.70;;
20179;SDS011;10249;48.900;9.090;2023-07-22T11:17:37;15.40;;;14.70;;
20179;SDS011;10249;48.900;9.090;2023-07-22T11:20:05;15.30;;;14.60;;
20179;SDS011;10249;48.900;9.090;2023-07-22T11:22:33;15.03;;;14.33;;
20179;SDS011;10249;48.900;9.090;2023-07-22T11:25:00;16.70;;;15.90;;
20179;SDS011;10249;48.900;9.090;2023-07-22T11:27:28;15.73;;;15.03;;
20179;SDS011;10249;48.900;9.090;2023-07-22T11:29:57;15.10;;;14.40;;
20179;SDS011;10249;48.900;9.090;2023-07-22T11:32:24;15.90;;;15.20;;
20179;SDS011;10249;48.900;9.090;2023-07-22T11:34:51;15.50;;;14.80;;
20179;SDS011;10249;48.900;9.090;2023-07-22T11:37:18;16.55;;;15.75;;
20179;SDS011;10249;48.900;9.090;2023-07-22T11:39:47;16.23;;;15.43;;
20179;SDS011;10249;48.900;9.090;2023-07-22T11:42:14;15.85;;;15.15;;
20179;SDS011;10249;48.900;9.090;2023-07-22T11:44:42;15.90;;;15.20;;
20179;SDS011;10249;48.900;9.090;2023-07-22T11:47:09;15.65;;;14.95;;
20179;SDS011;10249;48.900;9.090;2023-07-22T11:49:37;16.98;;;16.17;;
20179;SDS011;10249;48.900;9.090;2023-07-22T11:52:05;16.00;;;15.20;;
20179;SDS011;10249;48.900;9.090;2023-07-22T11:54:34;15.60;;;14.90;;
20179;SDS011;10249;48.900;9.090;2023-07-22T11:57:12;15.45;;;14.75;;
20179;SDS011;10249;48.900;9.090;2023-07-22T11:59:43;15.68;;;14.98;;
20179;SDS011;10249;48.900;9.090;2023-07-22T12:02:12;15.05;;;14.35;;
20179;SDS011;10249;48.900;9.090;2023-07-22T12:04:39;15.73;;;15.02;;
20179;SDS011;10249;48.900;9.090;2023-07-22T12:07:06;15.95;;;15.15;;
20179;SDS011;10249;48.900;9.090;2023-07-22T12:09:33;15.55;;;14.70;;
20179;SDS011;10249;48.900;9.090;2023-07-22T12:12:00;15.25;;;14.55;;
20179;SDS011;10249;48.900;9.090;2023-07-22T12:14:35;14.90;;;14.20;;
20179;SDS011;10249;48.900;9.090;2023-07-22T12:17:02;15.00;;;14.30;;
20179;SDS011;10249;48.900;9.090;2023-07-22T12:19:30;15.57;;;14.88;;
20179;SDS011;10249;48.900;9.090;2023-07-22T12:21:57;15.57;;;14.88;;
20179;SDS011;10249;48.900;9.090;2023-07-22T12:24:24;15.55;;;14.85;;
20179;SDS011;10249;48.900;9.090;2023-07-22T12:26:51;15.43;;;14.73;;
20179;SDS011;10249;48.900;9.090;2023-07-22T12:29:18;15.77;;;15.05;;
20179;SDS011;10249;48.900;9.090;2023-07-22T12:31:46;15.95;;;15.15;;
20179;SDS011;10249;48.900;9.090;2023-07-22T12:34:13;15.75;;;14.95;;
20179;SDS011;10249;48.900;9.090;2023-07-22T12:36:40;16.27;;;15.48;;
20179;SDS011;10249;48.900;9.090;2023-07-22T12:39:07;15.80;;;15.10;;
20179;SDS011;10249;48.900;9.090;2023-07-22T12:41:35;16.20;;;15.40;;
20179;SDS011;10249;48.900;9.090;2023-07-22T12:44:02;16.10;;;15.30;;
20179;SDS011;10249;48.900;9.090;2023-07-22T12:46:29;16.10;;;15.30;;
20179;SDS011;10249;48.900;9.090;2023-07-22T12:48:57;15.65;;;14.95;;
20179;SDS011;10249;48.900;9.090;2023-07-22T12:51:24;16.23;;;15.43;;
20179;SDS011;10249;48.900;9.090;2023-07-22T12:53:52;15.82;;;15.13;;
20179;SDS011;10249;48.900;9.090;2023-07-22T12:56:19;15.93;;;15.13;;
20179;SDS011;10249;48.900;9.090;2023-07-22T12:58:46;17.08;;;16.27;;
20179;SDS011;10249;48.900;9.090;2023-07-22T13:01:13;16.90;;;16.10;;
20179;SDS011;10249;48.900;9.090;2023-07-22T13:03:40;17.15;;;16.35;;
20179;SDS011;10249;48.900;9.090;2023-07-22T13:06:09;15.90;;;15.20;;
20179;SDS011;10249;48.900;9.090;2023-07-22T13:08:36;16.60;;;15.80;;
20179;SDS011;10249;48.900;9.090;2023-07-22T13:11:03;18.80;;;17.92;;
20179;SDS011;10249;48.900;9.090;2023-07-22T13:13:30;15.90;;;15.20;;
20179;SDS011;10249;48.900;9.090;2023-07-22T13:15:57;16.10;;;15.40;;
20179;SDS011;10249;48.900;9.090;2023-07-22T13:18:24;17.15;;;16.35;;
20179;SDS011;10249;48.900;9.090;2023-07-22T13:20:51;15.93;;;15.23;;
20179;SDS011;10249;48.900;9.090;2023-07-22T13:23:20;17.65;;;16.85;;
20179;SDS011;10249;48.900;9.090;2023-07-22T13:25:47;15.80;;;15.10;;
20179;SDS011;10249;48.900;9.090;2023-07-22T13:28:14;16.05;;;15.25;;
20179;SDS011;10249;48.900;9.090;2023-07-22T13:30:41;19.50;;;18.58;;
20179;SDS011;10249;48.900;9.090;2023-07-22T13:33:08;16.10;;;15.40;;
20179;SDS011;10249;48.900;9.090;2023-07-22T13:35:35;15.73;;;15.02;;
20179;SDS011;10249;48.900;9.090;2023-07-22T13:38:03;15.90;;;15.20;;
20179;SDS011;10249;48.900;9.090;2023-07-22T13:40:31;15.77;;;15.07;;
20179;SDS011;10249;48.900;9.090;2023-07-22T13:42:58;15.82;;;15.02;;
20179;SDS011;10249;48.900;9.090;2023-07-22T13:45:26;15.00;;;14.30;;
20179;SDS011;10249;48.900;9.090;2023-07-22T13:47:53;15.13;;;14.43;;
20179;SDS011;10249;48.900;9.090;2023-07-22T13:50:20;15.95;;;15.15;;
20179;SDS011;10249;48.900;9.090;2023-07-22T13:52:48;15.35;;;14.65;;
20179;SDS011;10249;48.900;9.090;2023-07-22T13:55:15;16.23;;;15.32;;
20179;SDS011;10249;48.900;9.090;2023-07-22T14:00:20;15.30;;;14.60;;
20179;SDS011;10249;48.900;9.090;2023-07-22T14:02:47;15.40;;;14.70;;
20179;SDS011;10249;48.900;9.090;2023-07-22T14:05:14;15.90;;;15.20;;
20179;SDS011;10249;48.900;9.090;2023-07-22T14:07:41;16.55;;;15.75;;
20179;SDS011;10249;48.900;9.090;2023-07-22T14:10:09;15.70;;;15.00;;
20179;SDS011;10249;48.900;9.090;2023-07-22T14:12:36;16.58;;;15.88;;
20179;SDS011;10249;48.900;9.090;2023-07-22T14:15:03;15.90;;;15.20;;
20179;SDS011;10249;48.900;9.090;2023-07-22T14:17:32;15.38;;;14.68;;
20179;SDS011;10249;48.900;9.090;2023-07-22T14:20:00;15.40;;;14.70;;
20179;SDS011;10249;48.900;9.090;2023-07-22T14:22:29;15.80;;;15.10;;
20179;SDS011;10249;48.900;9.090;2023-07-22T14:24:56;15.98;;;15.27;;
20179;SDS011;10249;48.900;9.090;2023-07-22T14:27:23;16.95;;;16.15;;
20179;SDS011;10249;48.900;9.090;2023-07-22T14:29:50;16.65;;;15.85;;
20179;SDS011;10249;48.900;9.090;2023-07-22T14:32:17;17.48;;;16.67;;
20179;SDS011;10249;48.900;9.090;2023-07-22T14:34:46;15.52;;;14.82;;
20179;SDS011;10249;48.900;9.090;2023-07-22T14:37:13;17.02;;;16.13;;
20179;SDS011;10249;48.900;9.090;2023-07-22T14:39:40;15.38;;;14.68;;
20179;SDS011;10249;48.900;9.090;2023-07-22T14:42:07;16.00;;;15.30;;